sensor_id;sensor_type;location;lat;lon;timestamp;temperature;humidity
69944;DHT22;57257;48.408;-4.498;2022-10-31T00:01:01;16.20;79.07
69944;DHT22;57257;48.408;-4.498;2022-10-31T00:03:26;16.20;79.10
69944;DHT22;57257;48.408;-4.498;2022-10-31T00:05:52;16.22;79.11
69944;DHT22;57257;48.408;-4.498;2022-10-31T00:08:18;16.24;79.04
69944;DHT22;57257;48.408;-4.498;2022-10-31T00:10:45;16.22;79.10
69944;DHT22;57257;48.408;-4.498;2022-10-31T00:13:12;16.21;79.10
69944;DHT22;57257;48.408;-4.498;2022-10-31T00:15:39;16.24;79.09
69944;DHT22;57257;48.408;-4.498;2022-10-31T00:18:06;16.21;79.09
69944;DHT22;57257;48.408;-4.498;2022-10-31T00:20:32;16.18;79.13
69944;DHT22;57257;48.408;-4.498;2022-10-31T00:22:58;16.16;79.21
69944;DHT22;57257;48.408;-4.498;2022-10-31T00:25:25;16.17;79.20
69944;DHT22;57257;48.408;-4.498;2022-10-31T00:27:50;16.17;79.20
69944;DHT22;57257;48.408;-4.498;2022-10-31T00:30:16;16.16;79.26
69944;DHT22;57257;48.408;-4.498;2022-10-31T00:32:41;16.17;79.30
69944;DHT22;57257;48.408;-4.498;2022-10-31T00:35:07;16.20;79.33
69944;DHT22;57257;48.408;-4.498;2022-10-31T00:37:32;16.21;79.31
69944;DHT22;57257;48.408;-4.498;2022-10-31T00:39:57;16.21;79.25
69944;DHT22;57257;48.408;-4.498;2022-10-31T00:42:23;16.22;79.17
69944;DHT22;57257;48.408;-4.498;2022-10-31T00:44:48;16.21;79.12
69944;DHT22;57257;48.408;-4.498;2022-10-31T00:47:13;16.22;79.14
69944;DHT22;57257;48.408;-4.498;2022-10-31T00:49:39;16.24;79.16
69944;DHT22;57257;48.408;-4.498;2022-10-31T00:52:04;16.22;79.15
69944;DHT22;57257;48.408;-4.498;2022-10-31T00:54:30;16.20;79.12
69944;DHT22;57257;48.408;-4.498;2022-10-31T00:56:56;16.20;79.17
69944;DHT22;57257;48.408;-4.498;2022-10-31T00:59:21;16.17;79.21
69944;DHT22;57257;48.408;-4.498;2022-10-31T01:01:47;16.20;79.27
69944;DHT22;57257;48.408;-4.498;2022-10-31T01:04:12;16.16;79.31
69944;DHT22;57257;48.408;-4.498;2022-10-31T01:06:38;16.20;79.30
69944;DHT22;57257;48.408;-4.498;2022-10-31T01:09:03;16.18;79.19
69944;DHT22;57257;48.408;-4.498;2022-10-31T01:11:29;16.20;79.20
69944;DHT22;57257;48.408;-4.498;2022-10-31T01:13:54;16.18;79.11
69944;DHT22;57257;48.408;-4.498;2022-10-31T01:16:22;16.16;79.11
69944;DHT22;57257;48.408;-4.498;2022-10-31T01:18:48;16.11;79.12
69944;DHT22;57257;48.408;-4.498;2022-10-31T01:21:17;16.14;79.17
69944;DHT22;57257;48.408;-4.498;2022-10-31T01:23:43;16.13;79.17
69944;DHT22;57257;48.408;-4.498;2022-10-31T01:26:14;16.08;79.25
69944;DHT22;57257;48.408;-4.498;2022-10-31T01:28:52;16.04;79.31
69944;DHT22;57257;48.408;-4.498;2022-10-31T01:31:19;16.04;79.40
69944;DHT22;57257;48.408;-4.498;2022-10-31T01:33:45;16.04;79.47
69944;DHT22;57257;48.408;-4.498;2022-10-31T01:36:22;16.03;79.40
69944;DHT22;57257;48.408;-4.498;2022-10-31T01:38:49;16.01;79.48
69944;DHT22;57257;48.408;-4.498;2022-10-31T01:41:18;15.97;79.58
69944;DHT22;57257;48.408;-4.498;2022-10-31T01:43:52;16.00;79.63
69944;DHT22;57257;48.408;-4.498;2022-10-31T01:46:34;15.97;79.68
69944;DHT22;57257;48.408;-4.498;2022-10-31T01:49:05;15.96;79.68
69944;DHT22;57257;48.408;-4.498;2022-10-31T01:51:35;16.00;79.74
69944;DHT22;57257;48.408;-4.498;2022-10-31T01:54:04;16.00;79.73
69944;DHT22;57257;48.408;-4.498;2022-10-31T01:56:33;16.03;79.68
69944;DHT22;57257;48.408;-4.498;2022-10-31T01:59:02;16.03;79.59
69944;DHT22;57257;48.408;-4.498;2022-10-31T02:01:30;16.06;79.58
69944;DHT22;57257;48.408;-4.498;2022-10-31T02:03:55;16.03;79.62
69944;DHT22;57257;48.408;-4.498;2022-10-31T02:06:29;16.07;79.59
69944;DHT22;57257;48.408;-4.498;2022-10-31T02:08:59;16.07;79.57
69944;DHT22;57257;48.408;-4.498;2022-10-31T02:11:27;16.08;79.57
69944;DHT22;57257;48.408;-4.498;2022-10-31T02:13:54;16.07;79.59
69944;DHT22;57257;48.408;-4.498;2022-10-31T02:16:19;16.04;79.57
69944;DHT22;57257;48.408;-4.498;2022-10-31T02:18:45;16.03;79.50
69944;DHT22;57257;48.408;-4.498;2022-10-31T02:31:55;15.94;79.53
69944;DHT22;57257;48.408;-4.498;2022-10-31T02:34:42;15.91;79.47
69944;DHT22;57257;48.408;-4.498;2022-10-31T02:37:19;15.91;79.45
69944;DHT22;57257;48.408;-4.498;2022-10-31T02:45:43;15.87;79.43
69944;DHT22;57257;48.408;-4.498;2022-10-31T02:48:16;15.83;79.44
69944;DHT22;57257;48.408;-4.498;2022-10-31T02:51:06;15.80;79.39
69944;DHT22;57257;48.408;-4.498;2022-10-31T02:53:34;15.80;79.42
69944;DHT22;57257;48.408;-4.498;2022-10-31T02:56:08;15.76;79.42
69944;DHT22;57257;48.408;-4.498;2022-10-31T02:58:38;15.76;79.47
69944;DHT22;57257;48.408;-4.498;2022-10-31T03:06:33;15.71;79.51
69944;DHT22;57257;48.408;-4.498;2022-10-31T03:09:15;15.71;79.58
69944;DHT22;57257;48.408;-4.498;2022-10-31T03:12:15;15.70;79.57
69944;DHT22;57257;48.408;-4.498;2022-10-31T03:14:51;15.67;79.60
69944;DHT22;57257;48.408;-4.498;2022-10-31T03:17:47;15.66;79.66
69944;DHT22;57257;48.408;-4.498;2022-10-31T03:20:16;15.64;79.67
69944;DHT22;57257;48.408;-4.498;2022-10-31T03:22:45;15.64;79.65
69944;DHT22;57257;48.408;-4.498;2022-10-31T03:25:12;15.63;79.77
69944;DHT22;57257;48.408;-4.498;2022-10-31T03:27:39;15.63;79.83
69944;DHT22;57257;48.408;-4.498;2022-10-31T03:30:06;15.62;79.92
69944;DHT22;57257;48.408;-4.498;2022-10-31T03:32:34;15.60;79.92
69944;DHT22;57257;48.408;-4.498;2022-10-31T03:35:02;15.62;79.96
69944;DHT22;57257;48.408;-4.498;2022-10-31T03:37:31;15.60;80.01
69944;DHT22;57257;48.408;-4.498;2022-10-31T03:39:58;15.60;80.03
69944;DHT22;57257;48.408;-4.498;2022-10-31T03:42:26;15.59;80.02
69944;DHT22;57257;48.408;-4.498;2022-10-31T03:45:02;15.59;80.01
69944;DHT22;57257;48.408;-4.498;2022-10-31T03:47:29;15.57;80.06
69944;DHT22;57257;48.408;-4.498;2022-10-31T03:49:55;15.56;80.02
69944;DHT22;57257;48.408;-4.498;2022-10-31T03:55:09;15.53;79.95
69944;DHT22;57257;48.408;-4.498;2022-10-31T04:00:10;15.52;80.03
69944;DHT22;57257;48.408;-4.498;2022-10-31T04:02:41;15.50;79.99
69944;DHT22;57257;48.408;-4.498;2022-10-31T04:05:09;15.53;79.98
69944;DHT22;57257;48.408;-4.498;2022-10-31T04:07:39;15.52;79.89
69944;DHT22;57257;48.408;-4.498;2022-10-31T04:10:10;15.52;79.93
69944;DHT22;57257;48.408;-4.498;2022-10-31T04:12:38;15.49;80.00
69944;DHT22;57257;48.408;-4.498;2022-10-31T04:15:06;15.50;79.99
69944;DHT22;57257;48.408;-4.498;2022-10-31T04:17:36;15.47;79.94
69944;DHT22;57257;48.408;-4.498;2022-10-31T04:20:03;15.43;79.90
69944;DHT22;57257;48.408;-4.498;2022-10-31T04:22:28;15.43;79.92
69944;DHT22;57257;48.408;-4.498;2022-10-31T04:24:54;15.40;79.96
69944;DHT22;57257;48.408;-4.498;2022-10-31T04:27:19;15.42;79.93
69944;DHT22;57257;48.408;-4.498;2022-10-31T04:29:45;15.42;79.92
69944;DHT22;57257;48.408;-4.498;2022-10-31T04:32:10;15.40;79.87
69944;DHT22;57257;48.408;-4.498;2022-10-31T04:34:36;15.39;79.83
69944;DHT22;57257;48.408;-4.498;2022-10-31T04:37:01;15.36;79.85
69944;DHT22;57257;48.408;-4.498;2022-10-31T04:39:27;15.36;79.90
69944;DHT22;57257;48.408;-4.498;2022-10-31T04:41:52;15.30;79.82
69944;DHT22;57257;48.408;-4.498;2022-10-31T04:44:18;15.29;79.82
69944;DHT22;57257;48.408;-4.498;2022-10-31T04:46:43;15.28;79.76
69944;DHT22;57257;48.408;-4.498;2022-10-31T04:49:08;15.26;79.76
69944;DHT22;57257;48.408;-4.498;2022-10-31T04:51:34;15.23;79.76
69944;DHT22;57257;48.408;-4.498;2022-10-31T04:53:59;15.22;79.77
69944;DHT22;57257;48.408;-4.498;2022-10-31T04:56:25;15.20;79.79
69944;DHT22;57257;48.408;-4.498;2022-10-31T04:58:50;15.18;79.72
69944;DHT22;57257;48.408;-4.498;2022-10-31T05:01:15;15.16;79.76
69944;DHT22;57257;48.408;-4.498;2022-10-31T05:03:41;15.18;79.73
69944;DHT22;57257;48.408;-4.498;2022-10-31T05:06:07;15.12;79.75
69944;DHT22;57257;48.408;-4.498;2022-10-31T05:08:32;15.12;79.81
69944;DHT22;57257;48.408;-4.498;2022-10-31T05:11:02;15.12;79.82
69944;DHT22;57257;48.408;-4.498;2022-10-31T05:13:28;15.12;79.85
69944;DHT22;57257;48.408;-4.498;2022-10-31T05:15:53;15.13;79.83
69944;DHT22;57257;48.408;-4.498;2022-10-31T05:18:19;15.10;79.77
69944;DHT22;57257;48.408;-4.498;2022-10-31T05:20:44;15.13;79.75
69944;DHT22;57257;48.408;-4.498;2022-10-31T05:23:09;15.10;79.77
69944;DHT22;57257;48.408;-4.498;2022-10-31T05:25:35;15.10;79.67
69944;DHT22;57257;48.408;-4.498;2022-10-31T05:28:00;15.09;79.72
69944;DHT22;57257;48.408;-4.498;2022-10-31T05:30:28;15.12;79.75
69944;DHT22;57257;48.408;-4.498;2022-10-31T05:32:55;15.12;79.68
69944;DHT22;57257;48.408;-4.498;2022-10-31T05:35:23;15.12;79.66
69944;DHT22;57257;48.408;-4.498;2022-10-31T05:37:49;15.10;79.64
69944;DHT22;57257;48.408;-4.498;2022-10-31T05:40:16;15.12;79.60
69944;DHT22;57257;48.408;-4.498;2022-10-31T05:42:42;15.12;79.58
69944;DHT22;57257;48.408;-4.498;2022-10-31T05:45:13;15.13;79.58
69944;DHT22;57257;48.408;-4.498;2022-10-31T05:47:39;15.16;79.62
69944;DHT22;57257;48.408;-4.498;2022-10-31T05:50:05;15.19;79.57
69944;DHT22;57257;48.408;-4.498;2022-10-31T05:52:31;15.18;79.52
69944;DHT22;57257;48.408;-4.498;2022-10-31T05:54:57;15.16;79.56
69944;DHT22;57257;48.408;-4.498;2022-10-31T05:57:22;15.16;79.57
69944;DHT22;57257;48.408;-4.498;2022-10-31T05:59:47;15.18;79.54
69944;DHT22;57257;48.408;-4.498;2022-10-31T06:02:13;15.18;79.56
69944;DHT22;57257;48.408;-4.498;2022-10-31T06:04:38;15.19;79.51
69944;DHT22;57257;48.408;-4.498;2022-10-31T06:07:04;15.16;79.61
69944;DHT22;57257;48.408;-4.498;2022-10-31T06:09:29;15.19;79.58
69944;DHT22;57257;48.408;-4.498;2022-10-31T06:11:54;15.19;79.57
69944;DHT22;57257;48.408;-4.498;2022-10-31T06:14:20;15.20;79.49
69944;DHT22;57257;48.408;-4.498;2022-10-31T06:16:45;15.22;79.50
69944;DHT22;57257;48.408;-4.498;2022-10-31T06:19:11;15.22;79.46
69944;DHT22;57257;48.408;-4.498;2022-10-31T06:21:36;15.23;79.47
69944;DHT22;57257;48.408;-4.498;2022-10-31T06:24:01;15.22;79.42
69944;DHT22;57257;48.408;-4.498;2022-10-31T06:26:27;15.19;79.33
69944;DHT22;57257;48.408;-4.498;2022-10-31T06:28:52;15.16;79.29
69944;DHT22;57257;48.408;-4.498;2022-10-31T06:31:18;15.16;79.29
69944;DHT22;57257;48.408;-4.498;2022-10-31T06:33:43;15.15;79.30
69944;DHT22;57257;48.408;-4.498;2022-10-31T06:36:09;15.13;79.27
69944;DHT22;57257;48.408;-4.498;2022-10-31T06:38:35;15.10;79.32
69944;DHT22;57257;48.408;-4.498;2022-10-31T06:41:04;15.10;79.31
69944;DHT22;57257;48.408;-4.498;2022-10-31T06:43:30;15.09;79.33
69944;DHT22;57257;48.408;-4.498;2022-10-31T06:45:55;15.08;79.36
69944;DHT22;57257;48.408;-4.498;2022-10-31T06:48:21;15.06;79.38
69944;DHT22;57257;48.408;-4.498;2022-10-31T06:50:46;15.06;79.37
69944;DHT22;57257;48.408;-4.498;2022-10-31T06:53:12;15.05;79.39
69944;DHT22;57257;48.408;-4.498;2022-10-31T06:55:39;15.09;79.35
69944;DHT22;57257;48.408;-4.498;2022-10-31T06:58:05;15.08;79.34
69944;DHT22;57257;48.408;-4.498;2022-10-31T07:00:30;15.06;79.29
69944;DHT22;57257;48.408;-4.498;2022-10-31T07:02:58;15.05;79.25
69944;DHT22;57257;48.408;-4.498;2022-10-31T07:05:25;15.05;79.25
69944;DHT22;57257;48.408;-4.498;2022-10-31T07:07:55;15.05;79.28
69944;DHT22;57257;48.408;-4.498;2022-10-31T07:10:22;15.06;79.28
69944;DHT22;57257;48.408;-4.498;2022-10-31T07:12:48;15.05;79.23
69944;DHT22;57257;48.408;-4.498;2022-10-31T07:15:13;15.01;79.31
69944;DHT22;57257;48.408;-4.498;2022-10-31T07:17:39;15.01;79.31
69944;DHT22;57257;48.408;-4.498;2022-10-31T07:20:05;15.02;79.38
69944;DHT22;57257;48.408;-4.498;2022-10-31T07:22:34;15.01;79.42
69944;DHT22;57257;48.408;-4.498;2022-10-31T07:25:00;15.05;79.43
69944;DHT22;57257;48.408;-4.498;2022-10-31T07:27:26;15.06;79.41
69944;DHT22;57257;48.408;-4.498;2022-10-31T07:29:51;15.09;79.42
69944;DHT22;57257;48.408;-4.498;2022-10-31T07:32:16;15.16;79.41
69944;DHT22;57257;48.408;-4.498;2022-10-31T07:34:42;15.20;79.34
69944;DHT22;57257;48.408;-4.498;2022-10-31T07:37:07;15.29;79.21
69944;DHT22;57257;48.408;-4.498;2022-10-31T07:39:32;15.32;79.05
69944;DHT22;57257;48.408;-4.498;2022-10-31T07:41:58;15.33;78.91
69944;DHT22;57257;48.408;-4.498;2022-10-31T07:44:24;15.42;78.98
69944;DHT22;57257;48.408;-4.498;2022-10-31T07:46:49;15.47;78.77
69944;DHT22;57257;48.408;-4.498;2022-10-31T07:49:14;15.50;78.59
69944;DHT22;57257;48.408;-4.498;2022-10-31T07:51:40;15.62;78.54
69944;DHT22;57257;48.408;-4.498;2022-10-31T07:54:05;15.71;78.39
69944;DHT22;57257;48.408;-4.498;2022-10-31T07:56:30;15.84;78.12
69944;DHT22;57257;48.408;-4.498;2022-10-31T07:58:56;16.00;77.98
69944;DHT22;57257;48.408;-4.498;2022-10-31T08:01:21;16.07;77.65
69944;DHT22;57257;48.408;-4.498;2022-10-31T08:03:47;16.17;77.55
69944;DHT22;57257;48.408;-4.498;2022-10-31T08:09:21;16.35;77.16
69944;DHT22;57257;48.408;-4.498;2022-10-31T08:11:47;16.40;76.82
69944;DHT22;57257;48.408;-4.498;2022-10-31T08:14:12;16.40;76.67
69944;DHT22;57257;48.408;-4.498;2022-10-31T08:16:37;16.41;76.66
69944;DHT22;57257;48.408;-4.498;2022-10-31T08:19:03;16.37;76.62
69944;DHT22;57257;48.408;-4.498;2022-10-31T08:21:28;16.38;76.51
69944;DHT22;57257;48.408;-4.498;2022-10-31T08:23:54;16.34;76.36
69944;DHT22;57257;48.408;-4.498;2022-10-31T08:26:19;16.29;76.30
69944;DHT22;57257;48.408;-4.498;2022-10-31T08:28:44;16.24;76.24
69944;DHT22;57257;48.408;-4.498;2022-10-31T08:31:11;16.20;76.30
69944;DHT22;57257;48.408;-4.498;2022-10-31T08:33:37;16.13;76.34
69944;DHT22;57257;48.408;-4.498;2022-10-31T08:36:02;16.08;76.49
69944;DHT22;57257;48.408;-4.498;2022-10-31T08:38:27;16.10;76.64
69944;DHT22;57257;48.408;-4.498;2022-10-31T08:40:53;16.10;76.51
69944;DHT22;57257;48.408;-4.498;2022-10-31T08:43:18;16.08;76.57
69944;DHT22;57257;48.408;-4.498;2022-10-31T08:45:47;16.01;76.48
69944;DHT22;57257;48.408;-4.498;2022-10-31T08:48:14;16.01;76.55
69944;DHT22;57257;48.408;-4.498;2022-10-31T08:50:40;16.00;76.62
69944;DHT22;57257;48.408;-4.498;2022-10-31T08:53:07;16.00;76.59
69944;DHT22;57257;48.408;-4.498;2022-10-31T08:55:34;16.16;76.61
69944;DHT22;57257;48.408;-4.498;2022-10-31T08:58:00;16.31;76.29
69944;DHT22;57257;48.408;-4.498;2022-10-31T09:00:26;16.38;76.17
69944;DHT22;57257;48.408;-4.498;2022-10-31T09:02:59;16.49;75.93
69944;DHT22;57257;48.408;-4.498;2022-10-31T09:05:24;16.64;75.72
69944;DHT22;57257;48.408;-4.498;2022-10-31T09:07:50;16.75;75.44
69944;DHT22;57257;48.408;-4.498;2022-10-31T09:10:16;16.92;75.03
69944;DHT22;57257;48.408;-4.498;2022-10-31T09:12:41;17.12;74.82
69944;DHT22;57257;48.408;-4.498;2022-10-31T09:15:07;17.30;74.27
69944;DHT22;57257;48.408;-4.498;2022-10-31T09:17:33;17.36;73.59
69944;DHT22;57257;48.408;-4.498;2022-10-31T09:19:58;17.46;73.73
69944;DHT22;57257;48.408;-4.498;2022-10-31T09:22:24;17.62;73.71
69944;DHT22;57257;48.408;-4.498;2022-10-31T09:24:49;17.77;73.46
69944;DHT22;57257;48.408;-4.498;2022-10-31T09:27:14;17.91;73.17
69944;DHT22;57257;48.408;-4.498;2022-10-31T09:29:40;18.05;72.51
69944;DHT22;57257;48.408;-4.498;2022-10-31T09:32:05;18.17;72.40
69944;DHT22;57257;48.408;-4.498;2022-10-31T09:34:31;18.21;71.89
69944;DHT22;57257;48.408;-4.498;2022-10-31T09:36:56;18.27;71.19
69944;DHT22;57257;48.408;-4.498;2022-10-31T09:39:22;18.22;70.52
69944;DHT22;57257;48.408;-4.498;2022-10-31T09:44:30;17.84;70.60
69944;DHT22;57257;48.408;-4.498;2022-10-31T09:47:13;17.71;70.85
69944;DHT22;57257;48.408;-4.498;2022-10-31T09:50:07;17.60;70.39
69944;DHT22;57257;48.408;-4.498;2022-10-31T09:52:36;17.53;70.24
69944;DHT22;57257;48.408;-4.498;2022-10-31T09:57:33;17.50;70.15
69944;DHT22;57257;48.408;-4.498;2022-10-31T10:00:00;17.53;69.99
69944;DHT22;57257;48.408;-4.498;2022-10-31T10:05:20;17.54;68.90
69944;DHT22;57257;48.408;-4.498;2022-10-31T10:08:01;17.60;69.01
69944;DHT22;57257;48.408;-4.498;2022-10-31T10:26:17;17.62;68.00
69944;DHT22;57257;48.408;-4.498;2022-10-31T10:28:47;17.59;67.52
69944;DHT22;57257;48.408;-4.498;2022-10-31T10:34:01;17.50;67.66
69944;DHT22;57257;48.408;-4.498;2022-10-31T10:39:38;17.47;67.79
69944;DHT22;57257;48.408;-4.498;2022-10-31T10:42:12;17.47;67.93
69944;DHT22;57257;48.408;-4.498;2022-10-31T10:44:57;17.53;67.72
69944;DHT22;57257;48.408;-4.498;2022-10-31T10:47:43;17.51;67.85
69944;DHT22;57257;48.408;-4.498;2022-10-31T10:50:20;17.53;67.76
69944;DHT22;57257;48.408;-4.498;2022-10-31T10:55:47;17.53;67.66
69944;DHT22;57257;48.408;-4.498;2022-10-31T10:58:14;17.59;67.89
69944;DHT22;57257;48.408;-4.498;2022-10-31T11:00:44;17.62;67.62
69944;DHT22;57257;48.408;-4.498;2022-10-31T11:03:14;17.66;67.50
69944;DHT22;57257;48.408;-4.498;2022-10-31T11:05:53;17.66;67.44
69944;DHT22;57257;48.408;-4.498;2022-10-31T11:08:26;17.70;67.58
69944;DHT22;57257;48.408;-4.498;2022-10-31T11:11:01;17.74;67.43
69944;DHT22;57257;48.408;-4.498;2022-10-31T11:13:28;17.81;67.50
69944;DHT22;57257;48.408;-4.498;2022-10-31T11:16:10;17.91;67.18
69944;DHT22;57257;48.408;-4.498;2022-10-31T11:18:45;17.91;66.97
69944;DHT22;57257;48.408;-4.498;2022-10-31T11:21:22;18.00;66.86
69944;DHT22;57257;48.408;-4.498;2022-10-31T11:23:48;17.98;66.61
69944;DHT22;57257;48.408;-4.498;2022-10-31T11:26:20;18.04;66.82
69944;DHT22;57257;48.408;-4.498;2022-10-31T11:28:56;18.08;66.79
69944;DHT22;57257;48.408;-4.498;2022-10-31T11:31:23;18.11;66.94
69944;DHT22;57257;48.408;-4.498;2022-10-31T11:33:55;18.14;66.98
69944;DHT22;57257;48.408;-4.498;2022-10-31T11:36:28;18.17;66.88
69944;DHT22;57257;48.408;-4.498;2022-10-31T11:38:54;18.22;67.14
69944;DHT22;57257;48.408;-4.498;2022-10-31T11:41:36;18.32;67.05
69944;DHT22;57257;48.408;-4.498;2022-10-31T11:44:17;18.39;66.96
69944;DHT22;57257;48.408;-4.498;2022-10-31T11:46:47;18.42;66.75
69944;DHT22;57257;48.408;-4.498;2022-10-31T11:51:49;18.56;66.96
69944;DHT22;57257;48.408;-4.498;2022-10-31T11:54:27;18.66;67.08
69944;DHT22;57257;48.408;-4.498;2022-10-31T11:56:53;18.75;67.13
69944;DHT22;57257;48.408;-4.498;2022-10-31T12:01:52;18.77;67.13
69944;DHT22;57257;48.408;-4.498;2022-10-31T12:04:18;18.77;67.17
69944;DHT22;57257;48.408;-4.498;2022-10-31T12:06:45;18.72;67.38
69944;DHT22;57257;48.408;-4.498;2022-10-31T12:17:28;18.55;68.45
69944;DHT22;57257;48.408;-4.498;2022-10-31T12:25:30;18.38;69.18
69944;DHT22;57257;48.408;-4.498;2022-10-31T12:30:46;18.38;69.59
69944;DHT22;57257;48.408;-4.498;2022-10-31T12:41:31;18.19;70.89
69944;DHT22;57257;48.408;-4.498;2022-10-31T12:46:58;18.02;71.84
69944;DHT22;57257;48.408;-4.498;2022-10-31T13:00:11;17.98;72.93
69944;DHT22;57257;48.408;-4.498;2022-10-31T13:05:17;18.00;73.24
69944;DHT22;57257;48.408;-4.498;2022-10-31T13:08:00;18.04;73.28
69944;DHT22;57257;48.408;-4.498;2022-10-31T13:10:34;18.07;73.28
69944;DHT22;57257;48.408;-4.498;2022-10-31T13:13:19;18.04;73.41
69944;DHT22;57257;48.408;-4.498;2022-10-31T13:15:53;18.02;73.73
69944;DHT22;57257;48.408;-4.498;2022-10-31T13:18:33;18.00;73.88
69944;DHT22;57257;48.408;-4.498;2022-10-31T13:21:05;18.01;73.93
69944;DHT22;57257;48.408;-4.498;2022-10-31T13:23:34;18.01;74.25
69944;DHT22;57257;48.408;-4.498;2022-10-31T13:26:12;17.97;74.55
69944;DHT22;57257;48.408;-4.498;2022-10-31T13:28:48;17.90;75.14
69944;DHT22;57257;48.408;-4.498;2022-10-31T13:31:16;17.88;75.16
69944;DHT22;57257;48.408;-4.498;2022-10-31T13:33:47;17.78;75.48
69944;DHT22;57257;48.408;-4.498;2022-10-31T13:36:38;17.76;75.87
69944;DHT22;57257;48.408;-4.498;2022-10-31T13:42:31;17.71;76.35
69944;DHT22;57257;48.408;-4.498;2022-10-31T13:44:52;17.71;76.51
69944;DHT22;57257;48.408;-4.498;2022-10-31T13:47:27;17.67;76.64
69944;DHT22;57257;48.408;-4.498;2022-10-31T13:52:43;17.63;76.92
69944;DHT22;57257;48.408;-4.498;2022-10-31T13:55:45;17.64;77.05
69944;DHT22;57257;48.408;-4.498;2022-10-31T14:01:04;17.59;77.74
69944;DHT22;57257;48.408;-4.498;2022-10-31T14:03:33;17.57;77.78
69944;DHT22;57257;48.408;-4.498;2022-10-31T14:06:00;17.56;78.04
69944;DHT22;57257;48.408;-4.498;2022-10-31T14:08:27;17.54;78.10
69944;DHT22;57257;48.408;-4.498;2022-10-31T14:10:54;17.57;78.07
69944;DHT22;57257;48.408;-4.498;2022-10-31T14:13:25;17.59;77.86
69944;DHT22;57257;48.408;-4.498;2022-10-31T14:15:55;17.57;77.73
69944;DHT22;57257;48.408;-4.498;2022-10-31T14:18:30;17.60;77.66
69944;DHT22;57257;48.408;-4.498;2022-10-31T14:20:56;17.60;77.50
69944;DHT22;57257;48.408;-4.498;2022-10-31T14:28:46;17.59;76.83
69944;DHT22;57257;48.408;-4.498;2022-10-31T14:34:06;17.54;76.89
69944;DHT22;57257;48.408;-4.498;2022-10-31T14:50:59;17.40;76.43
69944;DHT22;57257;48.408;-4.498;2022-10-31T14:53:30;17.39;76.54
69944;DHT22;57257;48.408;-4.498;2022-10-31T14:55:57;17.36;76.28
69944;DHT22;57257;48.408;-4.498;2022-10-31T14:58:41;17.30;76.41
69944;DHT22;57257;48.408;-4.498;2022-10-31T15:03:48;17.23;76.45
69944;DHT22;57257;48.408;-4.498;2022-10-31T15:06:17;17.16;76.69
69944;DHT22;57257;48.408;-4.498;2022-10-31T15:08:50;17.12;76.91
69944;DHT22;57257;48.408;-4.498;2022-10-31T15:11:24;17.03;77.38
69944;DHT22;57257;48.408;-4.498;2022-10-31T15:13:56;16.91;77.85
69944;DHT22;57257;48.408;-4.498;2022-10-31T15:16:25;16.73;78.15
69944;DHT22;57257;48.408;-4.498;2022-10-31T15:18:56;16.61;78.36
69944;DHT22;57257;48.408;-4.498;2022-10-31T15:21:24;16.52;78.71
69944;DHT22;57257;48.408;-4.498;2022-10-31T15:23:52;16.42;78.95
69944;DHT22;57257;48.408;-4.498;2022-10-31T15:26:20;16.37;79.11
69944;DHT22;57257;48.408;-4.498;2022-10-31T15:28:57;16.31;79.32
69944;DHT22;57257;48.408;-4.498;2022-10-31T15:31:24;16.27;79.50
69944;DHT22;57257;48.408;-4.498;2022-10-31T15:33:50;16.20;79.74
69944;DHT22;57257;48.408;-4.498;2022-10-31T15:36:24;16.17;79.97
69944;DHT22;57257;48.408;-4.498;2022-10-31T15:38:49;16.16;80.11
69944;DHT22;57257;48.408;-4.498;2022-10-31T15:41:31;16.14;80.16
69944;DHT22;57257;48.408;-4.498;2022-10-31T15:44:12;16.16;80.16
69944;DHT22;57257;48.408;-4.498;2022-10-31T15:46:39;16.18;80.12
69944;DHT22;57257;48.408;-4.498;2022-10-31T15:49:17;16.14;80.28
69944;DHT22;57257;48.408;-4.498;2022-10-31T15:51:47;16.14;80.28
69944;DHT22;57257;48.408;-4.498;2022-10-31T15:54:13;16.16;80.32
69944;DHT22;57257;48.408;-4.498;2022-10-31T15:56:39;16.14;80.27
69944;DHT22;57257;48.408;-4.498;2022-10-31T15:59:17;16.08;80.48
69944;DHT22;57257;48.408;-4.498;2022-10-31T16:01:58;16.08;80.55
69944;DHT22;57257;48.408;-4.498;2022-10-31T16:04:24;16.08;80.58
69944;DHT22;57257;48.408;-4.498;2022-10-31T16:07:22;16.07;80.76
69944;DHT22;57257;48.408;-4.498;2022-10-31T16:09:56;16.08;80.77
69944;DHT22;57257;48.408;-4.498;2022-10-31T16:12:23;16.08;80.86
69944;DHT22;57257;48.408;-4.498;2022-10-31T16:14:51;16.06;80.87
69944;DHT22;57257;48.408;-4.498;2022-10-31T16:17:20;16.03;80.90
69944;DHT22;57257;48.408;-4.498;2022-10-31T16:20:06;16.03;80.89
69944;DHT22;57257;48.408;-4.498;2022-10-31T16:22:37;15.98;80.97
69944;DHT22;57257;48.408;-4.498;2022-10-31T16:25:21;15.97;80.98
69944;DHT22;57257;48.408;-4.498;2022-10-31T16:27:50;15.97;81.11
69944;DHT22;57257;48.408;-4.498;2022-10-31T16:32:59;15.96;81.27
69944;DHT22;57257;48.408;-4.498;2022-10-31T16:35:33;16.01;81.33
69944;DHT22;57257;48.408;-4.498;2022-10-31T16:37:58;16.01;81.34
69944;DHT22;57257;48.408;-4.498;2022-10-31T16:40:24;16.03;81.12
69944;DHT22;57257;48.408;-4.498;2022-10-31T16:42:50;16.01;80.47
69944;DHT22;57257;48.408;-4.498;2022-10-31T16:45:23;16.01;80.23
69944;DHT22;57257;48.408;-4.498;2022-10-31T16:47:49;15.97;80.06
69944;DHT22;57257;48.408;-4.498;2022-10-31T16:50:24;15.96;79.89
69944;DHT22;57257;48.408;-4.498;2022-10-31T16:52:50;15.93;79.81
69944;DHT22;57257;48.408;-4.498;2022-10-31T16:55:18;15.89;79.31
69944;DHT22;57257;48.408;-4.498;2022-10-31T16:57:52;15.86;78.80
69944;DHT22;57257;48.408;-4.498;2022-10-31T17:00:20;15.82;78.44
69944;DHT22;57257;48.408;-4.498;2022-10-31T17:02:47;15.77;78.40
69944;DHT22;57257;48.408;-4.498;2022-10-31T17:05:16;15.74;78.24
69944;DHT22;57257;48.408;-4.498;2022-10-31T17:07:42;15.69;78.08
69944;DHT22;57257;48.408;-4.498;2022-10-31T17:10:09;15.66;78.10
69944;DHT22;57257;48.408;-4.498;2022-10-31T17:12:34;15.64;78.03
69944;DHT22;57257;48.408;-4.498;2022-10-31T17:15:01;15.63;77.94
69944;DHT22;57257;48.408;-4.498;2022-10-31T17:17:27;15.62;77.82
69944;DHT22;57257;48.408;-4.498;2022-10-31T17:19:52;15.60;78.04
69944;DHT22;57257;48.408;-4.498;2022-10-31T17:22:18;15.57;78.09
69944;DHT22;57257;48.408;-4.498;2022-10-31T17:24:43;15.52;78.17
69944;DHT22;57257;48.408;-4.498;2022-10-31T17:27:09;15.46;77.94
69944;DHT22;57257;48.408;-4.498;2022-10-31T17:29:34;15.42;77.98
69944;DHT22;57257;48.408;-4.498;2022-10-31T17:32:00;15.36;77.97
69944;DHT22;57257;48.408;-4.498;2022-10-31T17:34:27;15.29;77.50
69944;DHT22;57257;48.408;-4.498;2022-10-31T17:36:53;15.23;77.63
69944;DHT22;57257;48.408;-4.498;2022-10-31T17:39:18;15.23;77.70
69944;DHT22;57257;48.408;-4.498;2022-10-31T17:41:44;15.19;77.43
69944;DHT22;57257;48.408;-4.498;2022-10-31T17:44:11;15.19;76.91
69944;DHT22;57257;48.408;-4.498;2022-10-31T17:46:37;15.10;76.59
69944;DHT22;57257;48.408;-4.498;2022-10-31T17:49:03;15.06;76.80
69944;DHT22;57257;48.408;-4.498;2022-10-31T17:51:31;15.08;76.80